Time;durP1;ratioP1;P1;durP2;ratioP2;P2;SDS_P1;SDS_P2;PMS_P1;PMS_P2;Temp;Humidity;BMP_temperature;BMP_pressure;BME280_temperature;BME280_humidity;BME280_pressure;Samples;Min_cycle;Max_cycle;Signal;HPM_P1;HPM_P2
2023/12/15 00:00:13;;;;;;;12.50;3.03;;;;;;;5.70;100.00;101912.28;5093606;28;20470;-88
2023/12/15 00:02:38;;;;;;;14.85;2.97;;;;;;;5.78;100.00;101920.72;5093449;28;20024;-88
2023/12/15 00:05:04;;;;;;;15.65;3.35;;;;;;;5.77;100.00;101918.19;5093452;28;20035;-88
2023/12/15 00:07:29;;;;;;;14.63;3.28;;;;;;;5.83;100.00;101927.47;5093840;28;20024;-88
2023/12/15 00:09:55;;;;;;;10.18;2.15;;;;;;;5.84;100.00;101932.59;5093463;28;20024;-88
2023/12/15 00:12:20;;;;;;;13.80;2.65;;;;;;;5.86;100.00;101928.31;5093273;28;20114;-88
2023/12/15 00:14:45;;;;;;;14.27;2.83;;;;;;;5.56;100.00;101929.56;5093120;28;20031;-88
2023/12/15 00:17:11;;;;;;;19.40;3.65;;;;;;;5.43;100.00;101933.13;5093211;28;20561;-88
2023/12/15 00:19:37;;;;;;;14.70;3.80;;;;;;;5.63;100.00;101932.88;5093582;28;20417;-88
2023/12/15 00:22:02;;;;;;;14.90;3.50;;;;;;;5.61;100.00;101934.59;5093177;28;20474;-88
2023/12/15 00:24:27;;;;;;;14.25;3.13;;;;;;;5.64;100.00;101942.28;5093136;28;20020;-88
2023/12/15 00:26:54;;;;;;;17.33;3.08;;;;;;;5.67;100.00;101934.53;5093129;28;20385;-88
2023/12/15 00:29:19;;;;;;;14.65;2.90;;;;;;;5.69;100.00;101936.22;5092951;28;20054;-88
2023/12/15 00:31:44;;;;;;;14.45;2.63;;;;;;;5.70;100.00;101943.03;5093208;28;20028;-88
2023/12/15 00:34:10;;;;;;;13.55;3.10;;;;;;;5.51;100.00;101939.00;5093007;28;20490;-88
2023/12/15 00:36:35;;;;;;;12.23;3.53;;;;;;;5.44;100.00;101935.69;5093277;28;20508;-88
2023/12/15 00:39:01;;;;;;;19.00;2.65;;;;;;;5.50;100.00;101945.84;5092975;28;20502;-88
2023/12/15 00:41:26;;;;;;;10.95;2.55;;;;;;;5.57;100.00;101947.47;5092764;28;20474;-88
2023/12/15 00:43:52;;;;;;;12.30;3.00;;;;;;;5.64;100.00;101943.13;5092726;28;20027;-88
2023/12/15 00:46:17;;;;;;;14.68;2.90;;;;;;;5.73;100.00;101953.25;5092702;28;20470;-88
2023/12/15 00:48:42;;;;;;;16.58;2.92;;;;;;;5.76;100.00;101966.00;5091157;28;20128;-88
2023/12/15 00:51:07;;;;;;;11.07;2.65;;;;;;;5.67;100.00;101965.28;5092972;28;20036;-88
2023/12/15 00:53:33;;;;;;;20.35;4.03;;;;;;;5.67;100.00;101962.72;5092660;28;20020;-88
2023/12/15 00:55:59;;;;;;;15.80;3.22;;;;;;;5.49;100.00;101979.16;5092669;28;20035;-88
2023/12/15 00:58:25;;;;;;;19.92;4.07;;;;;;;5.43;100.00;101984.34;5092647;28;20078;-88
2023/12/15 01:00:50;;;;;;;17.65;3.35;;;;;;;5.49;100.00;101985.13;5091649;28;20514;-88
2023/12/15 01:03:16;;;;;;;13.93;2.92;;;;;;;5.51;100.00;101990.22;5092408;28;20488;-88
2023/12/15 01:05:41;;;;;;;24.65;3.42;;;;;;;5.55;100.00;101994.44;5092180;28;20470;-88
2023/12/15 01:08:06;;;;;;;12.95;2.55;;;;;;;5.52;100.00;101995.34;5092403;28;20481;-88
2023/12/15 01:10:32;;;;;;;12.55;2.45;;;;;;;5.58;100.00;102000.41;5092371;28;20390;-88
2023/12/15 01:12:57;;;;;;;24.20;4.65;;;;;;;5.61;100.00;102020.00;5092361;28;20423;-87
2023/12/15 01:15:22;;;;;;;17.45;3.03;;;;;;;5.50;100.00;102017.53;5092361;28;20088;-88
2023/12/15 01:17:48;;;;;;;14.23;3.00;;;;;;;5.43;100.00;102020.19;5092294;28;20032;-88
2023/12/15 01:20:14;;;;;;;10.70;2.53;;;;;;;5.57;100.00;102024.28;5092116;28;20032;-87
2023/12/15 01:22:39;;;;;;;14.00;3.05;;;;;;;5.48;100.00;102019.25;5092220;28;20137;-88
2023/12/15 01:25:05;;;;;;;16.15;2.85;;;;;;;5.36;100.00;102027.09;5092233;28;20532;-88
2023/12/15 01:27:30;;;;;;;14.85;2.85;;;;;;;5.15;100.00;102035.84;5092068;28;20451;-88
2023/12/15 01:29:56;;;;;;;15.05;3.15;;;;;;;5.10;100.00;102038.44;5091956;28;20047;-88
2023/12/15 01:32:21;;;;;;;19.77;2.60;;;;;;;4.98;100.00;102041.09;5090775;28;20036;-88
2023/12/15 01:34:46;;;;;;;8.30;2.47;;;;;;;5.01;100.00;102048.75;5092075;28;20036;-87
2023/12/15 01:37:12;;;;;;;14.98;3.38;;;;;;;5.02;100.00;102050.44;5091981;28;20036;-88
2023/12/15 01:39:37;;;;;;;22.77;4.20;;;;;;;4.86;100.00;102059.09;5092135;28;20027;-88
2023/12/15 01:42:03;;;;;;;21.63;3.08;;;;;;;4.84;100.00;102055.72;5092007;28;20066;-88
2023/12/15 01:44:28;;;;;;;20.90;3.42;;;;;;;4.83;100.00;102069.34;5091889;28;20021;-88
2023/12/15 01:46:53;;;;;;;17.23;3.05;;;;;;;4.59;100.00;102076.34;5090554;28;20106;-88
2023/12/15 01:49:19;;;;;;;12.68;3.03;;;;;;;4.38;100.00;102074.75;5091959;28;20419;-88
2023/12/15 01:51:44;;;;;;;14.77;4.60;;;;;;;4.50;100.00;102076.41;5091867;28;20028;-87
2023/12/15 01:54:10;;;;;;;18.88;3.25;;;;;;;4.48;100.00;102071.28;5092075;28;20078;-87
2023/12/15 01:56:35;;;;;;;17.35;2.75;;;;;;;4.42;100.00;102083.28;5091865;28;20116;-86
2023/12/15 01:59:01;;;;;;;23.73;5.15;;;;;;;3.85;100.00;102086.03;5091950;28;20028;-87
2023/12/15 02:01:26;;;;;;;20.13;5.45;;;;;;;4.03;100.00;102085.16;5091668;28;20024;-88
2023/12/15 02:03:52;;;;;;;24.38;4.50;;;;;;;4.12;100.00;102092.78;5091844;28;20035;-87
2023/12/15 02:06:17;;;;;;;16.02;2.60;;;;;;;4.19;100.00;102085.91;5091706;28;20016;-88
2023/12/15 02:08:43;;;;;;;13.55;3.55;;;;;;;4.20;100.00;102097.84;5091727;28;20486;-86
2023/12/15 02:11:09;;;;;;;13.40;3.30;;;;;;;4.22;100.00;102097.00;5091973;28;20028;-88
2023/12/15 02:13:34;;;;;;;15.82;3.58;;;;;;;4.15;100.00;102105.53;5095058;28;20556;-86
2023/12/15 02:15:59;;;;;;;14.77;3.40;;;;;;;3.73;100.00;102109.94;5095441;28;20064;-86
2023/12/15 02:18:25;;;;;;;19.33;5.00;;;;;;;3.90;100.00;102116.69;5095714;28;20031;-88
2023/12/15 02:20:50;;;;;;;22.73;4.45;;;;;;;3.98;100.00;102112.41;5095565;28;20077;-87
2023/12/15 02:23:15;;;;;;;22.98;3.97;;;;;;;4.07;100.00;102109.81;5094286;28;20438;-87
2023/12/15 02:25:41;;;;;;;18.90;3.30;;;;;;;4.16;100.00;102116.59;5095613;28;20027;-87
2023/12/15 02:28:06;;;;;;;18.85;3.75;;;;;;;4.21;100.00;102131.06;5095558;28;20114;-86
2023/12/15 02:30:31;;;;;;;15.80;3.50;;;;;;;4.13;100.00;102135.34;5095450;28;20127;-87
2023/12/15 02:32:57;;;;;;;25.55;4.13;;;;;;;3.96;100.00;102144.78;5095321;28;20085;-88
2023/12/15 02:35:22;;;;;;;20.60;3.88;;;;;;;4.14;100.00;102143.88;5095171;28;20027;-87
2023/12/15 02:37:48;;;;;;;28.50;4.72;;;;;;;4.22;100.00;102145.56;5095284;28;20032;-87
2023/12/15 02:40:13;;;;;;;23.48;3.78;;;;;;;4.48;100.00;102149.69;5093507;28;20418;-87
2023/12/15 02:42:39;;;;;;;20.23;3.53;;;;;;;4.51;100.00;102142.00;5079606;28;20089;-87
2023/12/15 02:45:05;;;;;;;22.50;4.75;;;;;;;4.58;100.00;102140.28;5074486;28;20028;-87
2023/12/15 02:47:30;;;;;;;21.85;4.22;;;;;;;4.59;100.00;102137.72;5074758;28;20099;-86
2023/12/15 02:49:55;;;;;;;25.38;4.47;;;;;;;4.75;100.00;102135.91;5073419;28;20031;-89
2023/12/15 02:52:21;;;;;;;20.33;3.85;;;;;;;4.79;100.00;102141.88;5074754;28;20381;-87
2023/12/15 02:54:46;;;;;;;19.00;3.60;;;;;;;4.85;100.00;102139.25;5074770;28;20047;-87
2023/12/15 02:57:12;;;;;;;15.75;3.78;;;;;;;4.77;100.00;102126.53;5074807;28;20033;-88
2023/12/15 02:59:37;;;;;;;20.50;6.03;;;;;;;4.80;100.00;102130.75;5074616;28;20025;-87
2023/12/15 03:02:03;;;;;;;17.52;3.67;;;;;;;4.80;100.00;102138.44;5074447;28;20035;-87
2023/12/15 03:04:29;;;;;;;20.33;4.07;;;;;;;4.81;100.00;102147.84;5074347;28;20490;-86
2023/12/15 03:06:55;;;;;;;23.20;3.50;;;;;;;4.77;100.00;102152.09;5074339;28;20095;-87
2023/12/15 03:09:21;;;;;;;17.92;3.47;;;;;;;4.78;100.00;102152.94;5074409;28;20027;-87
2023/12/15 03:11:46;;;;;;;13.48;4.07;;;;;;;4.82;100.00;102164.88;5074331;28;20024;-88
2023/12/15 03:14:12;;;;;;;21.65;3.70;;;;;;;4.84;100.00;102160.59;5074841;28;20378;-86
2023/12/15 03:16:37;;;;;;;15.30;3.30;;;;;;;4.91;100.00;102165.66;5074383;28;20028;-87
2023/12/15 03:19:03;;;;;;;18.88;4.00;;;;;;;5.00;100.00;102156.22;5074243;28;20032;-87
2023/12/15 03:21:28;;;;;;;17.75;3.80;;;;;;;4.98;100.00;102153.69;5074032;28;20031;-88
2023/12/15 03:23:53;;;;;;;24.10;4.65;;;;;;;4.90;100.00;102163.09;5073205;28;20481;-88
2023/12/15 03:26:19;;;;;;;11.52;3.00;;;;;;;4.95;100.00;102148.59;5074125;28;20020;-87
2023/12/15 03:28:44;;;;;;;15.98;3.05;;;;;;;4.99;100.00;102157.09;5074173;28;20037;-87
2023/12/15 03:31:09;;;;;;;12.23;2.90;;;;;;;4.98;100.00;102156.25;5073999;28;20031;-87
2023/12/15 03:33:35;;;;;;;14.82;3.13;;;;;;;4.97;100.00;102163.94;5073959;28;20070;-87
2023/12/15 03:36:02;;;;;;;19.05;4.28;;;;;;;5.01;100.00;102158.78;5073842;28;20237;-87
2023/12/15 03:38:27;;;;;;;16.60;3.90;;;;;;;4.98;100.00;102157.97;5073769;28;20086;-87
2023/12/15 03:40:53;;;;;;;15.02;3.35;;;;;;;5.05;100.00;102167.31;5073897;28;20063;-87
2023/12/15 03:43:18;;;;;;;18.15;3.85;;;;;;;5.02;100.00;102173.25;5074067;28;20513;-88
2023/12/15 03:45:43;;;;;;;20.10;4.32;;;;;;;4.91;100.00;102180.16;5073641;28;20035;-87
2023/12/15 03:48:08;;;;;;;21.75;4.38;;;;;;;4.68;100.00;102186.28;5073660;28;20512;-88
2023/12/15 03:50:34;;;;;;;15.35;3.38;;;;;;;4.79;100.00;102170.00;5073428;28;20033;-87
2023/12/15 03:52:59;;;;;;;22.35;3.67;;;;;;;4.82;100.00;102177.66;5073483;28;20031;-87
2023/12/15 03:55:25;;;;;;;13.05;3.00;;;;;;;4.78;100.00;102174.28;5073429;28;20103;-86
2023/12/15 03:57:50;;;;;;;16.30;3.33;;;;;;;4.76;100.00;102183.66;5073198;28;20548;-88
2023/12/15 04:00:17;;;;;;;19.10;3.30;;;;;;;4.75;100.00;102181.09;5073343;28;20475;-88
2023/12/15 04:02:43;;;;;;;20.80;3.10;;;;;;;4.57;100.00;102172.66;5073136;28;20474;-87
2023/12/15 04:05:09;;;;;;;18.48;3.47;;;;;;;4.63;100.00;102167.53;5073070;28;20040;-86
2023/12/15 04:07:34;;;;;;;15.20;2.65;;;;;;;4.63;100.00;102169.22;5073153;28;20028;-86
2023/12/15 04:10:00;;;;;;;13.98;3.10;;;;;;;4.66;100.00;102177.75;5073123;28;20059;-87
2023/12/15 04:12:25;;;;;;;23.40;3.97;;;;;;;4.64;100.00;102178.63;5073106;28;20027;-87
2023/12/15 04:14:50;;;;;;;22.20;4.55;;;;;;;4.59;100.00;102183.75;5072780;28;20021;-87
2023/12/15 04:17:16;;;;;;;19.30;4.97;;;;;;;4.65;100.00;102193.09;5073214;28;20040;-86
2023/12/15 04:19:41;;;;;;;16.90;3.67;;;;;;;4.61;100.00;102189.72;5073087;28;20020;-86
2023/12/15 04:22:06;;;;;;;11.95;3.20;;;;;;;4.72;100.00;102200.72;5072935;28;20099;-87
2023/12/15 04:24:32;;;;;;;13.57;3.05;;;;;;;4.73;100.00;102201.59;5072774;28;20081;-87
2023/12/15 04:26:57;;;;;;;15.30;3.75;;;;;;;4.75;100.00;102199.84;5072733;28;20021;-86
2023/12/15 04:29:22;;;;;;;21.58;4.63;;;;;;;4.75;100.00;102206.69;5072618;28;20032;-86
2023/12/15 04:31:48;;;;;;;20.00;3.25;;;;;;;4.77;100.00;102198.16;5072891;28;20039;-87
2023/12/15 04:34:13;;;;;;;15.98;3.35;;;;;;;4.79;100.00;102201.56;5072324;28;20070;-85
2023/12/15 04:36:39;;;;;;;18.33;4.00;;;;;;;4.85;100.00;102206.66;5072483;28;20028;-86
2023/12/15 04:39:05;;;;;;;13.90;3.50;;;;;;;4.83;100.00;102207.47;5072434;28;20039;-86
2023/12/15 04:41:31;;;;;;;19.52;3.53;;;;;;;4.79;100.00;102198.16;5072496;28;20025;-86
2023/12/15 04:43:56;;;;;;;19.48;3.92;;;;;;;4.75;100.00;102193.91;5072511;28;20035;-86
2023/12/15 04:46:24;;;;;;;16.45;3.65;;;;;;;4.76;100.00;102191.34;5072604;28;20025;-87
2023/12/15 04:48:49;;;;;;;17.88;3.55;;;;;;;4.75;100.00;102186.22;5072489;28;20052;-86
2023/12/15 04:51:14;;;;;;;17.25;3.28;;;;;;;4.66;100.00;102193.09;5072194;28;20109;-86
2023/12/15 04:53:40;;;;;;;16.83;4.03;;;;;;;4.70;100.00;102206.69;5072219;28;20475;-86
2023/12/15 04:56:05;;;;;;;21.30;3.92;;;;;;;4.65;100.00;102204.16;5072058;28;20020;-87
2023/12/15 04:58:31;;;;;;;14.38;3.30;;;;;;;4.72;100.00;102205.00;5072217;28;20033;-87
2023/12/15 05:00:56;;;;;;;14.93;3.42;;;;;;;4.68;100.00;102200.75;5072283;28;20020;-87
2023/12/15 05:03:22;;;;;;;19.20;3.20;;;;;;;4.68;100.00;102201.63;5072158;28;20052;-87
2023/12/15 05:05:48;;;;;;;9.93;2.85;;;;;;;4.69;100.00;102202.47;5071971;28;20402;-85
2023/12/15 05:08:13;;;;;;;15.45;2.72;;;;;;;4.70;100.00;102206.69;5071957;28;20048;-87
2023/12/15 05:10:38;;;;;;;11.52;2.65;;;;;;;4.66;100.00;102211.00;5072064;28;20107;-87
2023/12/15 05:13:04;;;;;;;16.88;3.92;;;;;;;4.06;100.00;102210.31;5072524;28;20032;-87
2023/12/15 05:15:29;;;;;;;15.20;2.95;;;;;;;4.07;100.00;102219.69;5072012;28;20047;-88
2023/12/15 05:17:54;;;;;;;13.50;4.25;;;;;;;4.13;100.00;102217.13;5071929;28;20024;-86
2023/12/15 05:20:20;;;;;;;12.52;2.50;;;;;;;4.27;100.00;102217.09;5071955;28;20020;-87
2023/12/15 05:22:46;;;;;;;13.27;2.92;;;;;;;4.23;100.00;102221.34;5072182;28;20028;-86
2023/12/15 05:25:11;;;;;;;18.13;3.65;;;;;;;4.11;100.00;102213.72;5070453;28;20137;-86
2023/12/15 05:27:36;;;;;;;15.50;4.18;;;;;;;4.11;100.00;102213.72;5071694;28;20032;-88
2023/12/15 05:30:02;;;;;;;12.55;3.60;;;;;;;4.15;100.00;102223.09;5071760;28;20194;-88
2023/12/15 05:32:28;;;;;;;10.77;2.22;;;;;;;4.05;100.00;102217.16;5071809;28;20029;-88
2023/12/15 05:34:53;;;;;;;6.85;1.85;;;;;;;4.08;100.00;102221.41;5071814;28;20028;-87
2023/12/15 05:37:19;;;;;;;10.25;2.20;;;;;;;4.05;100.00;102231.63;5071781;28;20028;-87
2023/12/15 05:39:44;;;;;;;12.93;3.65;;;;;;;3.98;100.00;102229.94;5071714;28;20017;-87
2023/12/15 05:42:10;;;;;;;10.35;2.28;;;;;;;3.92;100.00;102230.78;5071584;28;20025;-87
2023/12/15 05:44:39;;;;;;;20.25;3.10;;;;;;;3.78;100.00;102233.38;5070318;28;20409;-87
2023/12/15 05:47:05;;;;;;;10.55;2.70;;;;;;;3.60;100.00;102241.00;5071482;28;20017;-88
2023/12/15 05:49:30;;;;;;;13.38;3.20;;;;;;;3.74;100.00;102244.41;5075621;28;20493;-87
2023/12/15 05:51:55;;;;;;;12.23;2.53;;;;;;;3.57;100.00;102238.47;5074432;28;20490;-88
2023/12/15 05:54:21;;;;;;;18.88;3.55;;;;;;;3.58;100.00;102242.69;5074584;28;20040;-87
2023/12/15 05:56:46;;;;;;;16.77;3.22;;;;;;;3.62;100.00;102240.16;5075710;28;20486;-87
2023/12/15 05:59:11;;;;;;;16.48;3.97;;;;;;;3.62;100.00;102252.06;5075669;28;20033;-87
2023/12/15 06:01:37;;;;;;;17.48;4.00;;;;;;;3.73;100.00;102240.19;5075458;28;20012;-87
2023/12/15 06:04:02;;;;;;;13.18;2.65;;;;;;;3.62;100.00;102240.16;5075457;28;20082;-87
2023/12/15 06:06:28;;;;;;;8.02;2.85;;;;;;;3.64;100.00;102253.78;5074227;28;20470;-88
2023/12/15 06:08:53;;;;;;;17.75;2.92;;;;;;;3.72;100.00;102246.13;5075961;28;20067;-87
2023/12/15 06:11:19;;;;;;;12.88;3.05;;;;;;;3.79;100.00;102250.38;5075513;28;20111;-87
2023/12/15 06:13:44;;;;;;;15.32;3.53;;;;;;;3.88;100.00;102258.88;5075287;28;20032;-87
2023/12/15 06:16:20;;;;;;;17.63;3.20;;;;;;;3.93;100.00;102263.16;5075269;28;20040;-87
2023/12/15 06:18:49;;;;;;;12.30;2.85;;;;;;;3.93;100.00;102265.72;5075360;28;20025;-87
2023/12/15 06:21:24;;;;;;;14.40;2.88;;;;;;;3.94;100.00;102261.44;5075148;28;20039;-87
2023/12/15 06:23:50;;;;;;;14.40;3.42;;;;;;;3.93;100.00;102277.63;5075008;28;20024;-87
2023/12/15 06:26:24;;;;;;;17.98;3.92;;;;;;;3.90;100.00;102283.56;5075319;28;20454;-88
2023/12/15 06:28:50;;;;;;;19.63;3.33;;;;;;;4.05;100.00;102278.47;5074942;28;20115;-88
2023/12/15 06:31:16;;;;;;;13.75;3.00;;;;;;;4.02;100.00;102290.38;5074989;28;20020;-88
2023/12/15 06:33:41;;;;;;;18.27;3.10;;;;;;;4.08;100.00;102285.28;5074940;28;20037;-87
2023/12/15 06:36:08;;;;;;;8.65;2.67;;;;;;;4.04;100.00;102286.13;5075591;28;20363;-87
2023/12/15 06:38:35;;;;;;;16.42;3.22;;;;;;;3.99;100.00;102281.00;5075655;28;20119;-87
2023/12/15 06:41:01;;;;;;;14.02;4.60;;;;;;;3.99;100.00;102277.63;5085537;28;20028;-87
2023/12/15 06:43:26;;;;;;;23.15;3.47;;;;;;;4.09;100.00;102289.53;5094639;28;20075;-87
2023/12/15 06:45:52;;;;;;;19.40;3.67;;;;;;;4.08;100.00;102298.06;5094985;28;20428;-87
2023/12/15 06:48:17;;;;;;;17.05;3.25;;;;;;;4.01;100.00;102302.31;5094881;28;20031;-89
2023/12/15 06:50:43;;;;;;;15.07;3.20;;;;;;;3.98;100.00;102304.88;5094532;28;20052;-89
2023/12/15 06:53:08;;;;;;;14.82;2.92;;;;;;;4.18;100.00;102315.09;5093850;28;20081;-88
2023/12/15 06:55:34;;;;;;;13.50;3.45;;;;;;;4.17;100.00;102326.16;5094038;28;20047;-88
2023/12/15 06:58:00;;;;;;;20.05;3.40;;;;;;;4.19;100.00;102319.31;5094603;28;20078;-88
2023/12/15 07:00:25;;;;;;;17.80;3.67;;;;;;;4.33;100.00;102324.44;5094765;28;20024;-88
2023/12/15 07:02:51;;;;;;;21.08;3.45;;;;;;;4.34;100.00;102330.41;5094759;28;20031;-88
2023/12/15 07:05:16;;;;;;;15.68;3.33;;;;;;;4.44;100.00;102337.22;5093381;28;20047;-89
2023/12/15 07:07:42;;;;;;;20.80;3.28;;;;;;;4.46;100.00;102346.59;5094061;28;20466;-88
2023/12/15 07:10:07;;;;;;;12.43;2.55;;;;;;;4.48;100.00;102344.84;5094615;28;20047;-89
2023/12/15 07:12:32;;;;;;;16.65;3.40;;;;;;;4.44;100.00;102352.56;5094558;28;20051;-89
2023/12/15 07:14:58;;;;;;;20.27;3.70;;;;;;;4.46;100.00;102359.38;5093410;28;20024;-88
2023/12/15 07:17:23;;;;;;;10.98;2.95;;;;;;;4.50;100.00;102357.66;5093230;28;20119;-89
2023/12/15 07:19:48;;;;;;;16.75;3.17;;;;;;;4.58;100.00;102371.28;5094636;28;20016;-87
2023/12/15 07:22:14;;;;;;;19.90;3.38;;;;;;;4.64;100.00;102370.44;5094584;28;20050;-88
2023/12/15 07:24:42;;;;;;;14.73;2.70;;;;;;;4.81;100.00;102371.25;5094514;28;20020;-88
2023/12/15 07:27:07;;;;;;;14.48;3.28;;;;;;;4.90;100.00;102368.66;5094168;28;20020;-88
2023/12/15 07:29:33;;;;;;;18.45;4.85;;;;;;;4.94;100.00;102383.13;5094340;28;20078;-90
2023/12/15 07:31:58;;;;;;;21.38;2.78;;;;;;;4.94;100.00;102379.72;5094304;28;20024;-89
2023/12/15 07:34:24;;;;;;;13.32;2.60;;;;;;;4.98;100.00;102393.38;5094327;28;20036;-88
2023/12/15 07:36:49;;;;;;;12.30;2.80;;;;;;;4.98;100.00;102401.91;5094311;28;20462;-87
2023/12/15 07:39:21;;;;;;;10.70;2.72;;;;;;;4.97;100.00;102379.72;5094244;28;20057;-86
2023/12/15 07:41:47;;;;;;;13.30;3.03;;;;;;;5.03;100.00;102392.50;5092223;28;20020;-90
2023/12/15 07:44:13;;;;;;;15.63;4.22;;;;;;;5.06;100.00;102399.31;5082358;28;20029;-87
2023/12/15 07:46:38;;;;;;;23.58;3.40;;;;;;;5.14;100.00;102403.56;5073781;28;20024;-87
2023/12/15 07:49:04;;;;;;;19.25;3.00;;;;;;;5.14;100.00;102401.00;5073646;28;20032;-88
2023/12/15 07:51:29;;;;;;;10.20;2.60;;;;;;;5.13;100.00;102409.53;5073610;28;20024;-90
2023/12/15 07:53:55;;;;;;;11.07;2.78;;;;;;;5.14;100.00;102418.06;5073624;28;20070;-90
2023/12/15 07:56:21;;;;;;;12.85;2.88;;;;;;;5.16;100.00;102418.91;5084213;28;20193;-87
2023/12/15 07:58:49;;;;;;;20.38;3.20;;;;;;;5.14;100.00;102430.84;5093568;28;20028;-88
2023/12/15 08:01:15;;;;;;;14.98;2.83;;;;;;;5.14;100.00;102449.66;5093103;28;20043;-88
2023/12/15 08:03:40;;;;;;;15.73;3.47;;;;;;;5.13;100.00;102449.63;5093428;28;20028;-88
2023/12/15 08:06:06;;;;;;;13.20;3.20;;;;;;;5.14;100.00;102447.09;5093078;28;20020;-88
2023/12/15 08:08:32;;;;;;;11.10;2.83;;;;;;;5.23;100.00;102463.28;5093423;28;20066;-88
2023/12/15 08:10:57;;;;;;;15.60;3.95;;;;;;;5.13;100.00;102467.56;5091938;28;20077;-88
2023/12/15 08:13:22;;;;;;;16.98;4.15;;;;;;;5.15;100.00;102455.63;5094000;28;20028;-88
2023/12/15 08:15:48;;;;;;;12.90;4.05;;;;;;;5.09;100.00;102465.84;5092935;28;20382;-88
2023/12/15 08:18:13;;;;;;;13.35;3.47;;;;;;;5.13;100.00;102482.91;5091745;28;20063;-88
2023/12/15 08:20:38;;;;;;;15.00;2.72;;;;;;;5.12;100.00;102482.06;5093159;28;20484;-88
2023/12/15 08:23:04;;;;;;;16.77;3.72;;;;;;;5.13;100.00;102486.31;5093301;28;20020;-87
2023/12/15 08:25:29;;;;;;;10.38;3.05;;;;;;;5.15;100.00;102483.78;5092861;28;20530;-86
2023/12/15 08:27:54;;;;;;;15.15;3.17;;;;;;;5.17;100.00;102486.31;5092107;28;20047;-87
2023/12/15 08:30:20;;;;;;;15.07;3.28;;;;;;;5.18;100.00;102498.28;5092716;28;20115;-86
2023/12/15 08:32:45;;;;;;;12.05;3.08;;;;;;;5.26;100.00;102504.22;5092655;28;20024;-87
2023/12/15 08:35:10;;;;;;;17.55;3.08;;;;;;;5.30;100.00;102501.66;5092726;28;20055;-87
2023/12/15 08:37:36;;;;;;;21.05;5.72;;;;;;;5.31;100.00;102510.19;5093050;28;20550;-87
2023/12/15 08:40:01;;;;;;;16.05;3.17;;;;;;;5.40;100.00;102511.88;5092509;28;20030;-87
2023/12/15 08:42:27;;;;;;;10.60;4.05;;;;;;;5.35;100.00;102512.72;5090240;28;20031;-86
2023/12/15 08:44:52;;;;;;;12.63;3.00;;;;;;;5.37;100.00;102510.19;5092555;28;20401;-88
2023/12/15 08:47:17;;;;;;;20.98;5.20;;;;;;;5.33;100.00;102516.16;5091366;28;20028;-87
2023/12/15 08:49:43;;;;;;;12.95;3.22;;;;;;;5.40;100.00;102517.84;5092891;28;20095;-88
2023/12/15 08:52:08;;;;;;;16.35;2.90;;;;;;;5.48;100.00;102520.38;5092380;28;20031;-87
2023/12/15 08:54:33;;;;;;;12.32;3.40;;;;;;;5.38;100.00;102524.66;5092740;28;20048;-87
2023/12/15 08:56:59;;;;;;;19.08;2.97;;;;;;;5.40;100.00;102522.13;5091977;28;20027;-89
2023/12/15 08:59:24;;;;;;;12.95;3.72;;;;;;;5.50;100.00;102529.75;5092692;28;20055;-87
2023/12/15 09:01:50;;;;;;;15.70;3.20;;;;;;;5.57;100.00;102536.56;5090989;28;20028;-88
2023/12/15 09:04:15;;;;;;;9.82;2.30;;;;;;;5.57;100.00;102535.72;5092186;28;20115;-88
2023/12/15 09:06:41;;;;;;;14.77;3.15;;;;;;;5.55;100.00;102538.28;5092282;28;20531;-87
2023/12/15 09:09:07;;;;;;;12.10;2.63;;;;;;;5.61;100.00;102544.25;5092429;28;20500;-87
2023/12/15 09:11:33;;;;;;;13.18;2.67;;;;;;;5.57;100.00;102541.69;5091586;28;20080;-89
2023/12/15 09:14:01;;;;;;;9.82;3.00;;;;;;;5.64;100.00;102541.69;5092234;28;20103;-88
2023/12/15 09:16:26;;;;;;;19.15;3.13;;;;;;;5.76;100.00;102533.97;5091688;28;20016;-89
2023/12/15 09:18:52;;;;;;;7.50;3.63;;;;;;;5.75;100.00;102542.50;5091781;28;20030;-89
2023/12/15 09:21:17;;;;;;;14.95;2.38;;;;;;;5.79;100.00;102533.94;5091342;28;20027;-89
2023/12/15 09:23:43;;;;;;;13.38;3.10;;;;;;;5.82;100.00;102535.66;5091739;28;20024;-89
2023/12/15 09:26:08;;;;;;;13.55;2.78;;;;;;;5.84;100.00;102534.78;5091334;28;20069;-89
2023/12/15 09:28:34;;;;;;;15.45;3.15;;;;;;;5.89;100.00;102542.44;5091781;28;20565;-87
2023/12/15 09:30:59;;;;;;;9.70;2.63;;;;;;;5.93;100.00;102539.88;5091553;28;20456;-89
2023/12/15 09:33:24;;;;;;;8.98;2.92;;;;;;;5.95;100.00;102545.00;5091306;28;20035;-88
2023/12/15 09:35:53;;;;;;;13.60;3.13;;;;;;;5.97;100.00;102548.41;5091259;28;20056;-90
2023/12/15 09:38:20;;;;;;;13.15;2.33;;;;;;;6.00;100.00;102554.41;5087473;28;20024;-90
2023/12/15 09:40:45;;;;;;;18.63;3.33;;;;;;;6.04;100.00;102550.09;5090594;28;20024;-89
2023/12/15 09:43:11;;;;;;;13.52;2.70;;;;;;;6.06;100.00;102555.22;5090642;28;20031;-88
2023/12/15 09:45:36;;;;;;;14.70;2.97;;;;;;;6.11;100.00;102561.19;5091498;28;20031;-89
2023/12/15 09:48:05;;;;;;;18.73;2.75;;;;;;;6.07;100.00;102550.09;5091816;28;20496;-88
2023/12/15 09:50:33;;;;;;;14.10;2.95;;;;;;;6.15;100.00;102568.84;5091827;28;20029;-89
2023/12/15 09:53:02;;;;;;;8.02;2.17;;;;;;;6.16;100.00;102567.13;5091813;28;20108;-88
2023/12/15 09:55:29;;;;;;;13.48;2.78;;;;;;;6.28;100.00;102569.63;5091660;28;20102;-89
2023/12/15 09:57:56;;;;;;;11.40;2.22;;;;;;;6.26;100.00;102573.91;5092010;28;20028;-88
2023/12/15 10:00:21;;;;;;;17.40;2.95;;;;;;;6.30;100.00;102574.78;5090144;28;20111;-88
2023/12/15 10:02:47;;;;;;;8.60;2.50;;;;;;;6.34;100.00;102579.88;5091542;28;20043;-89
2023/12/15 10:05:13;;;;;;;9.25;2.00;;;;;;;6.39;100.00;102585.84;5091546;28;20028;-90
2023/12/15 10:07:38;;;;;;;10.32;2.35;;;;;;;6.46;100.00;102581.50;5091656;28;20429;-89
2023/12/15 10:10:04;;;;;;;12.38;2.85;;;;;;;6.51;100.00;102589.16;5091657;28;20077;-89
2023/12/15 10:12:30;;;;;;;7.75;2.15;;;;;;;6.58;100.00;102585.72;5091558;28;20504;-89
2023/12/15 10:14:56;;;;;;;9.10;2.60;;;;;;;6.61;100.00;102581.44;5091484;28;20030;-89
2023/12/15 10:17:22;;;;;;;10.50;2.13;;;;;;;6.67;100.00;102595.91;5091433;28;20016;-88
2023/12/15 10:19:47;;;;;;;7.90;2.17;;;;;;;6.72;100.00;102594.16;5091157;28;20028;-89
2023/12/15 10:22:13;;;;;;;8.30;1.85;;;;;;;6.74;100.00;102592.44;5091222;28;20063;-89
2023/12/15 10:24:38;;;;;;;8.82;2.30;;;;;;;6.81;100.00;102599.25;5091681;28;20046;-88
2023/12/15 10:27:08;;;;;;;14.93;3.05;;;;;;;6.85;100.00;102594.94;5091390;28;20051;-90
2023/12/15 10:29:36;;;;;;;15.52;3.13;;;;;;;6.94;100.00;102609.44;5091790;28;20530;-88
2023/12/15 10:32:02;;;;;;;13.70;2.50;;;;;;;6.99;100.00;102612.81;5091463;28;20024;-89
2023/12/15 10:34:28;;;;;;;11.90;2.30;;;;;;;7.08;100.00;102607.59;5094689;28;20031;-90
2023/12/15 10:36:53;;;;;;;9.40;2.33;;;;;;;7.12;100.00;102611.88;5095332;28;20486;-88
2023/12/15 10:39:19;;;;;;;19.40;2.50;;;;;;;7.16;100.00;102616.09;5095158;28;20356;-87
2023/12/15 10:41:45;;;;;;;23.05;3.38;;;;;;;7.23;100.00;102620.31;5094391;28;20028;-88
2023/12/15 10:44:14;;;;;;;14.55;2.42;;;;;;;7.32;100.00;102626.25;5094924;28;20389;-89
2023/12/15 10:46:47;;;;;;;9.77;2.17;;;;;;;7.38;100.00;102628.75;5093787;28;20111;-89
2023/12/15 10:49:13;;;;;;;15.77;3.83;;;;;;;7.45;100.00;102622.69;5094837;28;20107;-90
2023/12/15 10:51:39;;;;;;;20.33;2.60;;;;;;;7.51;100.00;102630.38;5093446;28;20028;-88
2023/12/15 10:54:06;;;;;;;19.40;2.90;;;;;;;7.57;100.00;102627.72;5094702;28;20016;-88
2023/12/15 10:56:32;;;;;;;24.63;4.18;;;;;;;7.61;100.00;102633.69;5094725;28;20024;-88
2023/12/15 10:58:59;;;;;;;17.63;2.58;;;;;;;7.66;100.00;102632.78;5094778;28;20058;-89
2023/12/15 11:01:27;;;;;;;15.20;3.22;;;;;;;7.70;100.00;102624.13;5094616;28;20016;-90
2023/12/15 11:03:53;;;;;;;14.25;3.65;;;;;;;7.68;100.00;102628.47;5094322;28;20336;-89
2023/12/15 11:06:30;;;;;;;19.90;5.30;;;;;;;7.73;100.00;102628.44;5094535;28;20354;-87
2023/12/15 11:09:06;;;;;;;16.85;2.83;;;;;;;7.77;100.00;102634.38;5094447;28;20111;-88